sensor_id;sensor_type;location;lat;lon;timestamp;P1;durP1;ratioP1;P2;durP2;ratioP2
17197;SDS011;8715;51.010;6.812;2023-11-21T00:02:40;865.00;;;811.35;;
17197;SDS011;8715;51.010;6.812;2023-11-21T00:05:25;863.20;;;809.67;;
17197;SDS011;8715;51.010;6.812;2023-11-21T00:08:12;863.97;;;809.92;;
17197;SDS011;8715;51.010;6.812;2023-11-21T00:10:57;862.72;;;808.92;;
17197;SDS011;8715;51.010;6.812;2023-11-21T00:13:44;870.50;;;815.85;;
17197;SDS011;8715;51.010;6.812;2023-11-21T00:16:29;865.63;;;811.55;;
17197;SDS011;8715;51.010;6.812;2023-11-21T00:19:14;869.47;;;815.40;;
17197;SDS011;8715;51.010;6.812;2023-11-21T00:22:00;859.38;;;806.28;;
17197;SDS011;8715;51.010;6.812;2023-11-21T00:24:46;867.97;;;813.00;;
17197;SDS011;8715;51.010;6.812;2023-11-21T00:27:31;868.13;;;813.60;;
17197;SDS011;8715;51.010;6.812;2023-11-21T00:30:16;865.45;;;811.38;;
17197;SDS011;8715;51.010;6.812;2023-11-21T00:33:02;854.55;;;801.50;;
17197;SDS011;8715;51.010;6.812;2023-11-21T00:35:48;859.33;;;806.08;;
17197;SDS011;8715;51.010;6.812;2023-11-21T00:38:33;866.03;;;811.95;;
17197;SDS011;8715;51.010;6.812;2023-11-21T00:41:19;862.90;;;809.05;;
17197;SDS011;8715;51.010;6.812;2023-11-21T00:44:04;869.35;;;815.05;;
17197;SDS011;8715;51.010;6.812;2023-11-21T00:46:50;869.97;;;816.08;;
17197;SDS011;8715;51.010;6.812;2023-11-21T00:49:35;862.17;;;808.97;;
17197;SDS011;8715;51.010;6.812;2023-11-21T00:52:20;866.00;;;812.08;;
17197;SDS011;8715;51.010;6.812;2023-11-21T00:55:05;870.92;;;816.33;;
17197;SDS011;8715;51.010;6.812;2023-11-21T00:57:52;867.92;;;814.25;;
17197;SDS011;8715;51.010;6.812;2023-11-21T01:00:38;866.28;;;813.03;;
17197;SDS011;8715;51.010;6.812;2023-11-21T01:03:24;868.20;;;814.30;;
17197;SDS011;8715;51.010;6.812;2023-11-21T01:06:08;863.67;;;810.35;;
17197;SDS011;8715;51.010;6.812;2023-11-21T01:08:54;874.80;;;820.13;;
17197;SDS011;8715;51.010;6.812;2023-11-21T01:11:39;858.35;;;805.83;;
17197;SDS011;8715;51.010;6.812;2023-11-21T01:14:25;863.83;;;810.33;;
17197;SDS011;8715;51.010;6.812;2023-11-21T01:17:11;867.55;;;813.00;;
17197;SDS011;8715;51.010;6.812;2023-11-21T01:19:56;870.95;;;816.60;;
17197;SDS011;8715;51.010;6.812;2023-11-21T01:22:41;863.35;;;809.80;;
17197;SDS011;8715;51.010;6.812;2023-11-21T01:25:26;866.22;;;811.97;;
17197;SDS011;8715;51.010;6.812;2023-11-21T01:28:11;864.75;;;810.95;;
17197;SDS011;8715;51.010;6.812;2023-11-21T01:30:58;866.08;;;812.25;;
17197;SDS011;8715;51.010;6.812;2023-11-21T01:33:43;866.78;;;813.35;;
17197;SDS011;8715;51.010;6.812;2023-11-21T01:36:31;876.92;;;821.47;;
17197;SDS011;8715;51.010;6.812;2023-11-21T01:39:18;863.78;;;810.67;;
17197;SDS011;8715;51.010;6.812;2023-11-21T01:42:07;872.55;;;818.45;;
17197;SDS011;8715;51.010;6.812;2023-11-21T01:44:52;865.60;;;811.78;;
17197;SDS011;8715;51.010;6.812;2023-11-21T01:47:39;857.35;;;805.10;;
17197;SDS011;8715;51.010;6.812;2023-11-21T01:50:25;865.13;;;812.03;;
17197;SDS011;8715;51.010;6.812;2023-11-21T01:53:11;861.67;;;808.78;;
17197;SDS011;8715;51.010;6.812;2023-11-21T01:55:57;863.08;;;809.67;;
17197;SDS011;8715;51.010;6.812;2023-11-21T01:58:43;854.85;;;802.97;;
17197;SDS011;8715;51.010;6.812;2023-11-21T02:01:30;854.35;;;802.00;;
17197;SDS011;8715;51.010;6.812;2023-11-21T02:04:16;851.83;;;799.47;;
17197;SDS011;8715;51.010;6.812;2023-11-21T02:07:02;856.53;;;803.78;;
17197;SDS011;8715;51.010;6.812;2023-11-21T02:09:48;858.28;;;805.58;;
17197;SDS011;8715;51.010;6.812;2023-11-21T02:12:34;858.60;;;805.83;;
17197;SDS011;8715;51.010;6.812;2023-11-21T02:15:20;851.17;;;799.42;;
17197;SDS011;8715;51.010;6.812;2023-11-21T02:18:05;864.13;;;810.58;;
17197;SDS011;8715;51.010;6.812;2023-11-21T02:20:51;860.92;;;808.00;;
17197;SDS011;8715;51.010;6.812;2023-11-21T02:23:38;858.78;;;806.35;;
17197;SDS011;8715;51.010;6.812;2023-11-21T02:26:25;849.00;;;796.97;;
17197;SDS011;8715;51.010;6.812;2023-11-21T02:29:10;862.85;;;808.85;;
17197;SDS011;8715;51.010;6.812;2023-11-21T02:31:56;862.45;;;809.38;;
17197;SDS011;8715;51.010;6.812;2023-11-21T02:34:41;862.90;;;808.85;;
17197;SDS011;8715;51.010;6.812;2023-11-21T02:37:27;853.40;;;801.03;;
17197;SDS011;8715;51.010;6.812;2023-11-21T02:40:13;864.78;;;810.88;;
17197;SDS011;8715;51.010;6.812;2023-11-21T02:43:01;860.95;;;807.97;;
17197;SDS011;8715;51.010;6.812;2023-11-21T02:45:46;857.47;;;803.70;;
17197;SDS011;8715;51.010;6.812;2023-11-21T02:48:31;858.58;;;805.25;;
17197;SDS011;8715;51.010;6.812;2023-11-21T02:51:16;865.92;;;811.28;;
17197;SDS011;8715;51.010;6.812;2023-11-21T02:54:01;860.53;;;807.17;;
17197;SDS011;8715;51.010;6.812;2023-11-21T02:56:49;863.67;;;810.20;;
17197;SDS011;8715;51.010;6.812;2023-11-21T02:59:34;864.47;;;810.15;;
17197;SDS011;8715;51.010;6.812;2023-11-21T03:02:19;865.15;;;811.33;;
17197;SDS011;8715;51.010;6.812;2023-11-21T03:05:05;856.78;;;803.90;;
17197;SDS011;8715;51.010;6.812;2023-11-21T03:07:50;855.88;;;802.47;;
17197;SDS011;8715;51.010;6.812;2023-11-21T03:10:35;854.63;;;802.25;;
17197;SDS011;8715;51.010;6.812;2023-11-21T03:13:21;854.92;;;802.22;;
17197;SDS011;8715;51.010;6.812;2023-11-21T03:16:06;862.83;;;809.00;;
17197;SDS011;8715;51.010;6.812;2023-11-21T03:18:52;861.28;;;806.80;;
17197;SDS011;8715;51.010;6.812;2023-11-21T03:21:37;857.92;;;804.15;;
17197;SDS011;8715;51.010;6.812;2023-11-21T03:24:22;860.38;;;806.78;;
17197;SDS011;8715;51.010;6.812;2023-11-21T03:27:07;865.95;;;812.45;;
17197;SDS011;8715;51.010;6.812;2023-11-21T03:29:54;861.53;;;808.13;;
17197;SDS011;8715;51.010;6.812;2023-11-21T03:32:39;857.65;;;804.47;;
17197;SDS011;8715;51.010;6.812;2023-11-21T03:35:24;863.25;;;809.80;;
17197;SDS011;8715;51.010;6.812;2023-11-21T03:38:10;857.38;;;804.35;;
17197;SDS011;8715;51.010;6.812;2023-11-21T03:40:55;859.47;;;805.67;;
17197;SDS011;8715;51.010;6.812;2023-11-21T03:43:40;855.28;;;802.55;;
17197;SDS011;8715;51.010;6.812;2023-11-21T03:46:27;866.42;;;811.90;;
17197;SDS011;8715;51.010;6.812;2023-11-21T03:49:12;862.45;;;808.78;;
17197;SDS011;8715;51.010;6.812;2023-11-21T03:51:57;857.88;;;804.05;;
17197;SDS011;8715;51.010;6.812;2023-11-21T03:54:42;860.35;;;806.33;;
17197;SDS011;8715;51.010;6.812;2023-11-21T03:57:27;849.85;;;797.58;;
17197;SDS011;8715;51.010;6.812;2023-11-21T04:00:12;866.33;;;812.58;;
17197;SDS011;8715;51.010;6.812;2023-11-21T04:02:59;865.47;;;811.88;;
17197;SDS011;8715;51.010;6.812;2023-11-21T04:05:44;863.58;;;809.22;;
17197;SDS011;8715;51.010;6.812;2023-11-21T04:08:29;859.10;;;805.90;;
17197;SDS011;8715;51.010;6.812;2023-11-21T04:11:14;862.53;;;808.83;;
17197;SDS011;8715;51.010;6.812;2023-11-21T04:13:59;862.88;;;809.28;;
17197;SDS011;8715;51.010;6.812;2023-11-21T04:16:44;866.90;;;812.88;;
17197;SDS011;8715;51.010;6.812;2023-11-21T04:19:30;863.00;;;809.28;;
17197;SDS011;8715;51.010;6.812;2023-11-21T04:22:15;858.72;;;805.05;;
17197;SDS011;8715;51.010;6.812;2023-11-21T04:25:01;869.50;;;814.55;;
17197;SDS011;8715;51.010;6.812;2023-11-21T04:27:46;857.42;;;804.45;;
17197;SDS011;8715;51.010;6.812;2023-11-21T04:30:31;859.47;;;805.70;;
17197;SDS011;8715;51.010;6.812;2023-11-21T04:33:16;860.85;;;806.97;;
17197;SDS011;8715;51.010;6.812;2023-11-21T04:36:03;860.10;;;806.80;;
17197;SDS011;8715;51.010;6.812;2023-11-21T04:38:48;865.50;;;811.33;;
17197;SDS011;8715;51.010;6.812;2023-11-21T04:41:33;859.90;;;806.08;;
17197;SDS011;8715;51.010;6.812;2023-11-21T04:44:19;861.88;;;808.03;;
17197;SDS011;8715;51.010;6.812;2023-11-21T04:47:05;870.50;;;816.00;;
17197;SDS011;8715;51.010;6.812;2023-11-21T04:49:50;858.30;;;804.95;;
17197;SDS011;8715;51.010;6.812;2023-11-21T04:52:37;859.72;;;806.28;;
17197;SDS011;8715;51.010;6.812;2023-11-21T04:55:21;869.38;;;815.15;;
17197;SDS011;8715;51.010;6.812;2023-11-21T04:58:06;861.78;;;807.88;;
17197;SDS011;8715;51.010;6.812;2023-11-21T05:00:51;858.38;;;804.58;;
17197;SDS011;8715;51.010;6.812;2023-11-21T05:03:36;860.78;;;807.15;;
17197;SDS011;8715;51.010;6.812;2023-11-21T05:06:22;860.47;;;807.20;;
17197;SDS011;8715;51.010;6.812;2023-11-21T05:09:09;859.00;;;805.83;;
17197;SDS011;8715;51.010;6.812;2023-11-21T05:11:55;856.50;;;802.85;;
17197;SDS011;8715;51.010;6.812;2023-11-21T05:14:40;861.08;;;807.45;;
17197;SDS011;8715;51.010;6.812;2023-11-21T05:17:25;859.83;;;805.88;;
17197;SDS011;8715;51.010;6.812;2023-11-21T05:20:10;862.70;;;809.30;;
17197;SDS011;8715;51.010;6.812;2023-11-21T05:22:57;856.88;;;803.03;;
17197;SDS011;8715;51.010;6.812;2023-11-21T05:25:43;856.03;;;803.38;;
17197;SDS011;8715;51.010;6.812;2023-11-21T05:28:29;861.70;;;808.15;;
17197;SDS011;8715;51.010;6.812;2023-11-21T05:31:14;859.53;;;805.33;;
17197;SDS011;8715;51.010;6.812;2023-11-21T05:34:00;864.42;;;810.13;;
17197;SDS011;8715;51.010;6.812;2023-11-21T05:36:45;865.50;;;811.45;;
17197;SDS011;8715;51.010;6.812;2023-11-21T05:39:30;865.85;;;811.80;;
17197;SDS011;8715;51.010;6.812;2023-11-21T05:42:16;856.50;;;802.67;;
17197;SDS011;8715;51.010;6.812;2023-11-21T05:45:02;859.70;;;805.33;;
17197;SDS011;8715;51.010;6.812;2023-11-21T05:47:53;864.20;;;810.17;;
17197;SDS011;8715;51.010;6.812;2023-11-21T05:50:38;856.15;;;802.08;;
17197;SDS011;8715;51.010;6.812;2023-11-21T05:53:23;864.88;;;810.25;;
17197;SDS011;8715;51.010;6.812;2023-11-21T05:56:08;860.22;;;806.42;;
17197;SDS011;8715;51.010;6.812;2023-11-21T05:58:54;858.90;;;805.28;;
17197;SDS011;8715;51.010;6.812;2023-11-21T06:01:39;852.03;;;798.78;;
17197;SDS011;8715;51.010;6.812;2023-11-21T06:04:24;858.05;;;803.70;;
17197;SDS011;8715;51.010;6.812;2023-11-21T06:07:09;858.75;;;804.88;;
17197;SDS011;8715;51.010;6.812;2023-11-21T06:09:54;853.75;;;800.00;;
17197;SDS011;8715;51.010;6.812;2023-11-21T06:12:39;853.78;;;800.55;;
17197;SDS011;8715;51.010;6.812;2023-11-21T06:15:27;861.15;;;807.22;;
17197;SDS011;8715;51.010;6.812;2023-11-21T06:18:13;862.38;;;808.22;;
17197;SDS011;8715;51.010;6.812;2023-11-21T06:20:58;862.90;;;809.03;;
17197;SDS011;8715;51.010;6.812;2023-11-21T06:23:44;861.95;;;807.35;;
17197;SDS011;8715;51.010;6.812;2023-11-21T06:26:29;857.53;;;803.10;;
17197;SDS011;8715;51.010;6.812;2023-11-21T06:29:15;863.22;;;808.15;;
17197;SDS011;8715;51.010;6.812;2023-11-21T06:32:02;857.72;;;803.50;;
17197;SDS011;8715;51.010;6.812;2023-11-21T06:37:33;849.30;;;797.00;;
17197;SDS011;8715;51.010;6.812;2023-11-21T06:40:19;861.20;;;806.90;;
17197;SDS011;8715;51.010;6.812;2023-11-21T06:43:04;865.13;;;810.75;;
17197;SDS011;8715;51.010;6.812;2023-11-21T06:45:50;855.97;;;801.85;;
17197;SDS011;8715;51.010;6.812;2023-11-21T06:48:37;860.70;;;806.22;;
17197;SDS011;8715;51.010;6.812;2023-11-21T06:51:22;855.88;;;801.78;;
17197;SDS011;8715;51.010;6.812;2023-11-21T06:54:07;855.95;;;801.50;;
17197;SDS011;8715;51.010;6.812;2023-11-21T06:56:52;866.13;;;810.90;;
17197;SDS011;8715;51.010;6.812;2023-11-21T06:59:37;865.45;;;809.88;;
17197;SDS011;8715;51.010;6.812;2023-11-21T07:02:22;864.15;;;808.80;;
17197;SDS011;8715;51.010;6.812;2023-11-21T07:05:09;865.63;;;810.70;;
17197;SDS011;8715;51.010;6.812;2023-11-21T07:07:55;868.10;;;812.47;;
17197;SDS011;8715;51.010;6.812;2023-11-21T07:10:39;862.40;;;807.65;;
17197;SDS011;8715;51.010;6.812;2023-11-21T07:13:25;864.03;;;809.50;;
17197;SDS011;8715;51.010;6.812;2023-11-21T07:16:11;859.30;;;804.88;;
17197;SDS011;8715;51.010;6.812;2023-11-21T07:18:56;863.58;;;808.70;;
17197;SDS011;8715;51.010;6.812;2023-11-21T07:21:42;862.63;;;808.25;;
17197;SDS011;8715;51.010;6.812;2023-11-21T07:24:28;866.83;;;811.55;;
17197;SDS011;8715;51.010;6.812;2023-11-21T07:27:15;862.78;;;807.47;;
17197;SDS011;8715;51.010;6.812;2023-11-21T07:30:00;860.30;;;805.75;;
17197;SDS011;8715;51.010;6.812;2023-11-21T07:32:47;874.40;;;819.42;;
17197;SDS011;8715;51.010;6.812;2023-11-21T07:35:33;862.17;;;807.60;;
17197;SDS011;8715;51.010;6.812;2023-11-21T07:38:19;866.97;;;811.20;;
17197;SDS011;8715;51.010;6.812;2023-11-21T07:41:04;867.78;;;811.17;;
17197;SDS011;8715;51.010;6.812;2023-11-21T07:43:51;871.03;;;814.88;;
17197;SDS011;8715;51.010;6.812;2023-11-21T07:46:37;870.90;;;815.00;;
17197;SDS011;8715;51.010;6.812;2023-11-21T07:49:22;875.80;;;819.47;;
17197;SDS011;8715;51.010;6.812;2023-11-21T07:52:07;867.28;;;810.55;;
17197;SDS011;8715;51.010;6.812;2023-11-21T07:54:53;865.17;;;809.47;;
17197;SDS011;8715;51.010;6.812;2023-11-21T07:57:38;869.50;;;813.70;;
17197;SDS011;8715;51.010;6.812;2023-11-21T08:00:23;872.88;;;816.72;;
17197;SDS011;8715;51.010;6.812;2023-11-21T08:03:08;867.30;;;811.47;;
17197;SDS011;8715;51.010;6.812;2023-11-21T08:05:55;871.33;;;814.05;;
17197;SDS011;8715;51.010;6.812;2023-11-21T08:08:40;863.20;;;807.40;;
17197;SDS011;8715;51.010;6.812;2023-11-21T08:11:27;869.75;;;812.60;;
17197;SDS011;8715;51.010;6.812;2023-11-21T08:14:15;871.58;;;814.63;;
17197;SDS011;8715;51.010;6.812;2023-11-21T08:17:00;873.25;;;815.55;;
17197;SDS011;8715;51.010;6.812;2023-11-21T08:19:45;870.72;;;814.00;;
17197;SDS011;8715;51.010;6.812;2023-11-21T08:22:32;869.15;;;812.83;;
17197;SDS011;8715;51.010;6.812;2023-11-21T08:25:17;867.03;;;810.10;;
17197;SDS011;8715;51.010;6.812;2023-11-21T08:28:05;877.75;;;820.03;;
17197;SDS011;8715;51.010;6.812;2023-11-21T08:30:50;874.42;;;817.72;;
17197;SDS011;8715;51.010;6.812;2023-11-21T08:33:35;874.10;;;817.03;;
17197;SDS011;8715;51.010;6.812;2023-11-21T08:36:20;877.72;;;820.20;;
17197;SDS011;8715;51.010;6.812;2023-11-21T08:39:06;873.67;;;815.88;;
17197;SDS011;8715;51.010;6.812;2023-11-21T08:41:53;871.78;;;814.53;;
17197;SDS011;8715;51.010;6.812;2023-11-21T08:44:39;871.78;;;815.03;;
17197;SDS011;8715;51.010;6.812;2023-11-21T08:47:25;879.10;;;821.97;;
17197;SDS011;8715;51.010;6.812;2023-11-21T08:50:10;873.38;;;816.08;;
17197;SDS011;8715;51.010;6.812;2023-11-21T08:52:55;878.85;;;821.40;;
17197;SDS011;8715;51.010;6.812;2023-11-21T08:55:40;877.22;;;819.65;;
17197;SDS011;8715;51.010;6.812;2023-11-21T08:58:25;881.35;;;823.75;;
17197;SDS011;8715;51.010;6.812;2023-11-21T09:01:12;881.95;;;824.20;;
17197;SDS011;8715;51.010;6.812;2023-11-21T09:03:57;868.65;;;811.47;;
17197;SDS011;8715;51.010;6.812;2023-11-21T09:06:42;877.53;;;820.00;;
17197;SDS011;8715;51.010;6.812;2023-11-21T09:09:27;874.45;;;816.53;;
17197;SDS011;8715;51.010;6.812;2023-11-21T09:12:13;881.60;;;823.47;;
17197;SDS011;8715;51.010;6.812;2023-11-21T09:14:58;881.00;;;823.20;;
17197;SDS011;8715;51.010;6.812;2023-11-21T09:17:44;884.50;;;825.80;;
17197;SDS011;8715;51.010;6.812;2023-11-21T09:20:30;880.08;;;821.85;;
17197;SDS011;8715;51.010;6.812;2023-11-21T09:23:14;876.42;;;818.78;;
17197;SDS011;8715;51.010;6.812;2023-11-21T09:25:59;885.97;;;827.33;;
17197;SDS011;8715;51.010;6.812;2023-11-21T09:28:44;883.00;;;824.17;;
17197;SDS011;8715;51.010;6.812;2023-11-21T09:31:31;881.55;;;822.95;;
17197;SDS011;8715;51.010;6.812;2023-11-21T09:34:18;884.15;;;825.53;;
17197;SDS011;8715;51.010;6.812;2023-11-21T09:37:03;879.97;;;821.88;;
17197;SDS011;8715;51.010;6.812;2023-11-21T09:39:50;879.47;;;820.80;;
17197;SDS011;8715;51.010;6.812;2023-11-21T09:42:36;884.60;;;826.13;;
17197;SDS011;8715;51.010;6.812;2023-11-21T09:45:23;885.50;;;827.15;;
17197;SDS011;8715;51.010;6.812;2023-11-21T09:48:09;872.22;;;814.90;;
17197;SDS011;8715;51.010;6.812;2023-11-21T09:50:56;882.92;;;825.00;;
17197;SDS011;8715;51.010;6.812;2023-11-21T09:53:42;877.95;;;820.20;;
17197;SDS011;8715;51.010;6.812;2023-11-21T09:56:28;874.00;;;815.88;;
17197;SDS011;8715;51.010;6.812;2023-11-21T09:59:15;881.47;;;823.17;;
17197;SDS011;8715;51.010;6.812;2023-11-21T10:02:00;883.00;;;824.63;;
17197;SDS011;8715;51.010;6.812;2023-11-21T10:04:46;870.08;;;812.28;;
17197;SDS011;8715;51.010;6.812;2023-11-21T10:07:32;876.80;;;818.63;;
17197;SDS011;8715;51.010;6.812;2023-11-21T10:10:19;881.90;;;823.35;;
17197;SDS011;8715;51.010;6.812;2023-11-21T10:13:05;876.95;;;818.58;;
17197;SDS011;8715;51.010;6.812;2023-11-21T10:15:51;880.05;;;821.33;;
17197;SDS011;8715;51.010;6.812;2023-11-21T10:18:36;880.90;;;822.42;;
17197;SDS011;8715;51.010;6.812;2023-11-21T10:21:23;881.78;;;822.67;;
17197;SDS011;8715;51.010;6.812;2023-11-21T10:24:10;884.75;;;825.20;;
17197;SDS011;8715;51.010;6.812;2023-11-21T10:26:56;884.45;;;825.20;;
17197;SDS011;8715;51.010;6.812;2023-11-21T10:29:41;887.47;;;828.08;;
17197;SDS011;8715;51.010;6.812;2023-11-21T10:32:28;880.63;;;821.55;;
17197;SDS011;8715;51.010;6.812;2023-11-21T10:35:16;880.33;;;821.38;;
17197;SDS011;8715;51.010;6.812;2023-11-21T10:38:00;881.25;;;822.58;;
17197;SDS011;8715;51.010;6.812;2023-11-21T10:40:48;887.67;;;828.70;;
17197;SDS011;8715;51.010;6.812;2023-11-21T10:43:33;883.00;;;823.72;;
17197;SDS011;8715;51.010;6.812;2023-11-21T10:46:19;883.72;;;824.58;;
17197;SDS011;8715;51.010;6.812;2023-11-21T10:49:04;885.83;;;826.38;;
17197;SDS011;8715;51.010;6.812;2023-11-21T10:51:50;880.47;;;821.55;;
17197;SDS011;8715;51.010;6.812;2023-11-21T10:54:36;889.13;;;829.63;;
17197;SDS011;8715;51.010;6.812;2023-11-21T10:57:23;879.03;;;820.75;;
17197;SDS011;8715;51.010;6.812;2023-11-21T11:00:09;885.58;;;826.42;;
17197;SDS011;8715;51.010;6.812;2023-11-21T11:02:57;881.05;;;822.25;;
17197;SDS011;8715;51.010;6.812;2023-11-21T11:05:43;879.15;;;820.70;;
17197;SDS011;8715;51.010;6.812;2023-11-21T11:08:35;885.95;;;827.35;;
17197;SDS011;8715;51.010;6.812;2023-11-21T11:11:20;880.40;;;821.83;;
17197;SDS011;8715;51.010;6.812;2023-11-21T11:14:07;891.38;;;832.10;;
17197;SDS011;8715;51.010;6.812;2023-11-21T11:16:53;882.13;;;823.83;;
17197;SDS011;8715;51.010;6.812;2023-11-21T11:19:39;883.50;;;824.33;;
17197;SDS011;8715;51.010;6.812;2023-11-21T11:22:37;885.40;;;826.58;;
17197;SDS011;8715;51.010;6.812;2023-11-21T11:25:27;878.70;;;820.58;;
17197;SDS011;8715;51.010;6.812;2023-11-21T11:28:16;882.20;;;824.05;;
17197;SDS011;8715;51.010;6.812;2023-11-21T11:31:05;882.00;;;823.78;;
17197;SDS011;8715;51.010;6.812;2023-11-21T11:33:57;886.17;;;827.78;;
17197;SDS011;8715;51.010;6.812;2023-11-21T11:36:43;873.80;;;816.72;;
17197;SDS011;8715;51.010;6.812;2023-11-21T11:39:35;883.00;;;824.83;;
17197;SDS011;8715;51.010;6.812;2023-11-21T11:42:21;880.38;;;821.90;;
17197;SDS011;8715;51.010;6.812;2023-11-21T11:45:17;892.70;;;833.65;;
17197;SDS011;8715;51.010;6.812;2023-11-21T11:48:05;881.67;;;823.70;;
17197;SDS011;8715;51.010;6.812;2023-11-21T11:51:03;885.22;;;826.67;;
17197;SDS011;8715;51.010;6.812;2023-11-21T11:53:48;878.83;;;820.78;;
17197;SDS011;8715;51.010;6.812;2023-11-21T11:56:34;883.22;;;824.78;;
17197;SDS011;8715;51.010;6.812;2023-11-21T11:59:21;883.28;;;825.05;;
17197;SDS011;8715;51.010;6.812;2023-11-21T12:02:06;885.78;;;827.30;;
17197;SDS011;8715;51.010;6.812;2023-11-21T12:04:56;884.72;;;826.42;;
17197;SDS011;8715;51.010;6.812;2023-11-21T12:07:42;880.30;;;821.65;;
17197;SDS011;8715;51.010;6.812;2023-11-21T12:10:28;886.60;;;827.83;;
17197;SDS011;8715;51.010;6.812;2023-11-21T12:13:13;886.95;;;827.97;;
17197;SDS011;8715;51.010;6.812;2023-11-21T12:15:59;881.38;;;823.15;;
17197;SDS011;8715;51.010;6.812;2023-11-21T12:18:43;884.53;;;826.03;;
17197;SDS011;8715;51.010;6.812;2023-11-21T12:21:31;883.10;;;824.35;;
17197;SDS011;8715;51.010;6.812;2023-11-21T12:24:16;879.28;;;821.13;;
17197;SDS011;8715;51.010;6.812;2023-11-21T12:27:02;883.25;;;824.83;;
17197;SDS011;8715;51.010;6.812;2023-11-21T12:29:47;888.60;;;829.58;;
17197;SDS011;8715;51.010;6.812;2023-11-21T12:32:32;887.15;;;827.70;;
17197;SDS011;8715;51.010;6.812;2023-11-21T12:35:17;887.75;;;828.78;;
17197;SDS011;8715;51.010;6.812;2023-11-21T12:38:04;887.22;;;827.60;;
17197;SDS011;8715;51.010;6.812;2023-11-21T12:40:49;883.40;;;824.42;;
17197;SDS011;8715;51.010;6.812;2023-11-21T12:43:35;888.13;;;828.60;;
17197;SDS011;8715;51.010;6.812;2023-11-21T12:46:20;890.33;;;830.60;;
17197;SDS011;8715;51.010;6.812;2023-11-21T12:49:05;895.58;;;834.67;;
17197;SDS011;8715;51.010;6.812;2023-11-21T12:51:50;894.63;;;834.33;;
17197;SDS011;8715;51.010;6.812;2023-11-21T12:54:36;892.38;;;831.95;;
17197;SDS011;8715;51.010;6.812;2023-11-21T12:57:22;896.25;;;835.03;;
17197;SDS011;8715;51.010;6.812;2023-11-21T13:00:12;890.97;;;830.58;;
17197;SDS011;8715;51.010;6.812;2023-11-21T13:03:08;891.00;;;830.60;;
17197;SDS011;8715;51.010;6.812;2023-11-21T13:05:56;890.05;;;829.35;;
17197;SDS011;8715;51.010;6.812;2023-11-21T13:08:43;893.88;;;833.28;;
17197;SDS011;8715;51.010;6.812;2023-11-21T13:11:30;888.13;;;828.15;;
17197;SDS011;8715;51.010;6.812;2023-11-21T13:14:20;893.95;;;833.83;;
17197;SDS011;8715;51.010;6.812;2023-11-21T13:17:13;894.90;;;834.75;;
17197;SDS011;8715;51.010;6.812;2023-11-21T13:19:58;892.47;;;832.67;;
17197;SDS011;8715;51.010;6.812;2023-11-21T13:22:49;885.10;;;825.85;;
17197;SDS011;8715;51.010;6.812;2023-11-21T13:25:37;885.30;;;825.80;;
17197;SDS011;8715;51.010;6.812;2023-11-21T13:28:26;883.10;;;823.85;;
17197;SDS011;8715;51.010;6.812;2023-11-21T13:31:15;886.08;;;826.97;;
17197;SDS011;8715;51.010;6.812;2023-11-21T13:34:09;882.80;;;823.67;;
17197;SDS011;8715;51.010;6.812;2023-11-21T13:36:58;888.15;;;828.72;;
17197;SDS011;8715;51.010;6.812;2023-11-21T13:39:44;882.47;;;823.83;;
17197;SDS011;8715;51.010;6.812;2023-11-21T13:42:33;883.22;;;824.47;;
17197;SDS011;8715;51.010;6.812;2023-11-21T13:45:20;886.33;;;826.92;;
17197;SDS011;8715;51.010;6.812;2023-11-21T13:48:07;889.15;;;829.03;;
17197;SDS011;8715;51.010;6.812;2023-11-21T13:50:54;892.30;;;832.13;;
17197;SDS011;8715;51.010;6.812;2023-11-21T13:53:42;882.45;;;823.47;;
17197;SDS011;8715;51.010;6.812;2023-11-21T13:56:28;884.40;;;825.63;;
17197;SDS011;8715;51.010;6.812;2023-11-21T13:59:13;882.53;;;823.22;;
17197;SDS011;8715;51.010;6.812;2023-11-21T14:02:05;885.00;;;825.75;;
17197;SDS011;8715;51.010;6.812;2023-11-21T14:05:01;888.42;;;829.05;;
17197;SDS011;8715;51.010;6.812;2023-11-21T14:07:52;878.78;;;820.05;;
17197;SDS011;8715;51.010;6.812;2023-11-21T14:10:39;892.65;;;833.22;;
17197;SDS011;8715;51.010;6.812;2023-11-21T14:13:26;886.88;;;827.13;;
17197;SDS011;8715;51.010;6.812;2023-11-21T14:16:12;883.95;;;824.88;;
17197;SDS011;8715;51.010;6.812;2023-11-21T14:18:59;883.78;;;824.47;;
17197;SDS011;8715;51.010;6.812;2023-11-21T14:21:53;882.60;;;823.72;;
17197;SDS011;8715;51.010;6.812;2023-11-21T14:24:38;883.75;;;824.88;;
17197;SDS011;8715;51.010;6.812;2023-11-21T14:27:27;883.75;;;825.28;;
17197;SDS011;8715;51.010;6.812;2023-11-21T14:30:12;888.47;;;829.47;;
17197;SDS011;8715;51.010;6.812;2023-11-21T14:33:02;885.92;;;827.10;;
17197;SDS011;8715;51.010;6.812;2023-11-21T14:35:48;884.35;;;825.60;;
17197;SDS011;8715;51.010;6.812;2023-11-21T14:38:33;877.47;;;819.42;;
17197;SDS011;8715;51.010;6.812;2023-11-21T14:41:18;888.70;;;829.55;;
17197;SDS011;8715;51.010;6.812;2023-11-21T14:44:03;885.10;;;826.10;;
17197;SDS011;8715;51.010;6.812;2023-11-21T14:46:51;880.58;;;822.13;;
17197;SDS011;8715;51.010;6.812;2023-11-21T14:49:37;887.17;;;827.53;;
17197;SDS011;8715;51.010;6.812;2023-11-21T14:52:37;883.38;;;824.58;;
17197;SDS011;8715;51.010;6.812;2023-11-21T14:55:37;884.47;;;825.63;;
17197;SDS011;8715;51.010;6.812;2023-11-21T14:58:36;879.20;;;820.53;;
17197;SDS011;8715;51.010;6.812;2023-11-21T15:01:22;884.83;;;825.72;;
17197;SDS011;8715;51.010;6.812;2023-11-21T15:04:20;880.55;;;821.65;;
17197;SDS011;8715;51.010;6.812;2023-11-21T15:07:15;880.95;;;821.88;;
17197;SDS011;8715;51.010;6.812;2023-11-21T15:10:00;884.53;;;825.58;;
17197;SDS011;8715;51.010;6.812;2023-11-21T15:12:45;881.20;;;822.38;;
17197;SDS011;8715;51.010;6.812;2023-11-21T15:15:29;884.95;;;825.63;;
17197;SDS011;8715;51.010;6.812;2023-11-21T15:18:17;881.72;;;823.17;;
17197;SDS011;8715;51.010;6.812;2023-11-21T15:21:03;881.80;;;823.05;;
17197;SDS011;8715;51.010;6.812;2023-11-21T15:23:47;883.97;;;825.72;;
17197;SDS011;8715;51.010;6.812;2023-11-21T15:26:34;879.95;;;821.75;;
17197;SDS011;8715;51.010;6.812;2023-11-21T15:29:19;882.05;;;823.75;;
17197;SDS011;8715;51.010;6.812;2023-11-21T15:32:05;876.58;;;818.15;;
17197;SDS011;8715;51.010;6.812;2023-11-21T15:34:50;881.35;;;822.53;;
17197;SDS011;8715;51.010;6.812;2023-11-21T15:37:36;874.70;;;816.63;;
17197;SDS011;8715;51.010;6.812;2023-11-21T15:40:21;877.17;;;818.92;;
17197;SDS011;8715;51.010;6.812;2023-11-21T15:43:07;882.08;;;823.42;;
17197;SDS011;8715;51.010;6.812;2023-11-21T15:45:52;880.42;;;822.97;;
17197;SDS011;8715;51.010;6.812;2023-11-21T15:48:38;880.95;;;822.45;;
17197;SDS011;8715;51.010;6.812;2023-11-21T15:51:27;883.00;;;825.08;;
17197;SDS011;8715;51.010;6.812;2023-11-21T15:54:12;884.22;;;826.33;;
17197;SDS011;8715;51.010;6.812;2023-11-21T15:56:57;883.22;;;825.47;;
17197;SDS011;8715;51.010;6.812;2023-11-21T15:59:45;881.97;;;824.60;;
17197;SDS011;8715;51.010;6.812;2023-11-21T16:02:29;883.35;;;825.90;;